Time;durP1;ratioP1;P1;durP2;ratioP2;P2;SDS_P1;SDS_P2;PMS_P1;PMS_P2;Temp;Humidity;BMP_temperature;BMP_pressure;BME280_temperature;BME280_humidity;BME280_pressure;Samples;Min_cycle;Max_cycle;Signal;HPM_P1;HPM_P2
2022/05/16 00:00:30;;;;;;;9.65;8.75;;;;;;;15.94;91.30;100080.28;6274697;22;20011;-83
2022/05/16 00:02:59;;;;;;;9.73;8.63;;;;;;;15.88;91.30;100084.22;6246234;22;20438;-83
2022/05/16 00:05:24;;;;;;;9.50;8.60;;;;;;;15.88;92.71;100082.19;6274379;22;20421;-83
2022/05/16 00:07:50;;;;;;;10.30;9.20;;;;;;;15.88;92.25;100078.63;6274636;22;20008;-82
2022/05/16 00:10:16;;;;;;;9.88;8.90;;;;;;;15.91;92.88;100083.25;6273383;22;20000;-83
2022/05/16 00:12:41;;;;;;;10.43;9.43;;;;;;;15.88;93.13;100090.59;6246838;22;20738;-83
2022/05/16 00:15:09;;;;;;;9.77;8.77;;;;;;;15.89;92.78;100092.16;6274754;22;19999;-83
2022/05/16 00:17:34;;;;;;;10.07;9.15;;;;;;;15.92;91.11;100090.41;6246748;22;20015;-83
2022/05/16 00:20:00;;;;;;;9.90;8.90;;;;;;;15.92;91.17;100090.41;6274568;22;20031;-83
2022/05/16 00:22:27;;;;;;;10.23;8.68;;;;;;;15.93;90.66;100077.97;6274131;22;20349;-83
2022/05/16 00:24:53;;;;;;;9.10;8.20;;;;;;;15.94;91.01;100076.72;6247145;22;20319;-83
2022/05/16 00:27:19;;;;;;;8.95;8.02;;;;;;;16.00;90.24;100081.22;6247204;22;20011;-83
2022/05/16 00:29:45;;;;;;;10.95;8.43;;;;;;;15.99;90.63;100081.69;6246805;22;20083;-83
2022/05/16 00:32:11;;;;;;;9.27;8.38;;;;;;;15.94;90.27;100071.13;6274125;22;20476;-83
2022/05/16 00:34:36;;;;;;;8.90;8.10;;;;;;;16.02;89.80;100075.13;6222051;22;20461;-83
2022/05/16 00:37:03;;;;;;;9.10;8.20;;;;;;;15.96;91.65;100066.63;6274144;22;20387;-84
2022/05/16 00:39:29;;;;;;;11.63;8.63;;;;;;;15.91;92.57;100060.88;6247421;22;20610;-83
2022/05/16 00:41:55;;;;;;;9.15;8.20;;;;;;;15.85;92.80;100061.53;6274424;22;20015;-83
2022/05/16 00:44:21;;;;;;;10.45;8.60;;;;;;;15.79;92.81;100060.63;6273948;22;20007;-83
2022/05/16 00:46:48;;;;;;;9.35;8.45;;;;;;;15.76;93.14;100067.16;6273377;22;20061;-82
2022/05/16 00:49:20;;;;;;;9.23;8.43;;;;;;;15.76;93.19;100064.38;6274237;22;20459;-83
2022/05/16 00:51:54;;;;;;;9.50;8.40;;;;;;;15.74;92.72;100064.06;6246857;22;20016;-83
2022/05/16 00:54:27;;;;;;;9.75;8.65;;;;;;;15.75;91.94;100060.03;6246711;22;20012;-83
2022/05/16 00:56:58;;;;;;;9.73;8.83;;;;;;;15.72;92.13;100060.97;6247046;22;20042;-83
2022/05/16 00:59:29;;;;;;;9.32;8.10;;;;;;;15.79;91.82;100063.44;6247584;22;20234;-78
2022/05/16 01:04:48;;;;;;;9.90;8.90;;;;;;;15.94;91.39;100071.91;6250218;22;20054;-78
2022/05/16 01:07:38;;;;;;;9.60;8.70;;;;;;;16.02;90.49;100078.69;6273454;22;20058;-78
2022/05/16 01:10:06;;;;;;;10.20;8.40;;;;;;;16.07;89.82;100080.09;6230792;22;20437;-80
2022/05/16 01:12:46;;;;;;;9.90;8.38;;;;;;;16.07;90.40;100077.28;6273829;22;20038;-78
2022/05/16 01:15:26;;;;;;;9.50;8.50;;;;;;;16.02;90.80;100077.94;6272973;22;20022;-80
2022/05/16 01:17:54;;;;;;;9.02;8.23;;;;;;;15.80;91.77;100055.81;6273802;22;20369;-81
2022/05/16 01:20:20;;;;;;;9.38;8.43;;;;;;;15.83;92.73;100074.44;6246888;22;20425;-80
2022/05/16 01:22:48;;;;;;;9.23;8.32;;;;;;;15.83;91.81;100055.63;6246642;22;20011;-80
2022/05/16 01:25:21;;;;;;;9.15;8.25;;;;;;;15.82;91.62;100073.66;6246930;22;20008;-80
2022/05/16 01:27:55;;;;;;;10.07;8.43;;;;;;;15.73;92.61;100067.34;6246304;22;20042;-79
2022/05/16 01:30:30;;;;;;;9.65;8.75;;;;;;;15.74;92.38;100071.66;6274796;22;20050;-79
2022/05/16 01:32:55;;;;;;;9.00;8.10;;;;;;;15.68;92.92;100065.97;6273019;22;20018;-80
2022/05/16 01:35:23;;;;;;;9.55;8.55;;;;;;;15.66;92.15;100057.25;6273999;22;20016;-84
2022/05/16 01:40:34;;;;;;;10.32;8.32;;;;;;;15.78;93.59;100059.06;6273209;22;20085;-79
2022/05/16 01:43:00;;;;;;;10.48;8.25;;;;;;;15.86;93.61;100057.47;6273116;22;20736;-80
2022/05/16 01:45:25;;;;;;;9.32;8.43;;;;;;;15.89;94.79;100057.81;6246786;22;20037;-79
2022/05/16 01:47:51;;;;;;;9.15;8.02;;;;;;;16.01;95.81;100059.59;6273362;22;20087;-79
2022/05/16 01:50:16;;;;;;;9.45;8.38;;;;;;;16.01;95.46;100051.22;6274242;22;20069;-80
2022/05/16 01:52:42;;;;;;;8.52;7.43;;;;;;;16.03;96.33;100051.50;6272531;22;20421;-80
2022/05/16 01:55:08;;;;;;;9.23;8.18;;;;;;;16.14;96.22;100051.75;6272065;22;20015;-80
2022/05/16 01:57:34;;;;;;;11.15;8.80;;;;;;;16.13;96.34;100044.63;6246336;22;20488;-80
2022/05/16 01:59:59;;;;;;;10.75;8.25;;;;;;;16.21;96.93;100040.22;6274148;22;20012;-80
2022/05/16 02:02:25;;;;;;;12.73;8.63;;;;;;;16.22;96.48;100044.56;6273172;22;20016;-80
2022/05/16 02:04:51;;;;;;;10.15;9.25;;;;;;;16.18;96.61;100038.34;6273167;22;20121;-80
2022/05/16 02:07:16;;;;;;;11.15;9.82;;;;;;;16.26;96.49;100037.53;6273190;22;20007;-80
2022/05/16 02:09:42;;;;;;;11.30;9.50;;;;;;;16.27;96.15;100046.69;6272916;22;20069;-80
2022/05/16 02:12:09;;;;;;;14.05;10.13;;;;;;;16.23;97.92;100054.50;6273687;22;20004;-80
2022/05/16 02:14:34;;;;;;;12.30;10.13;;;;;;;16.22;99.08;100052.94;6245941;22;20014;-80
2022/05/16 02:16:59;;;;;;;11.52;10.00;;;;;;;16.23;99.28;100051.69;6245841;22;20011;-80
2022/05/16 02:19:25;;;;;;;10.90;9.77;;;;;;;16.23;98.97;100038.50;6220386;22;20469;-80
2022/05/16 02:24:40;;;;;;;10.88;9.88;;;;;;;16.36;99.37;100046.66;6273072;22;20018;-80
2022/05/16 02:27:07;;;;;;;10.65;8.77;;;;;;;16.32;99.32;100046.06;6272984;22;20008;-80
2022/05/16 02:29:34;;;;;;;10.23;9.10;;;;;;;16.27;98.51;100039.09;6272733;22;20012;-80
2022/05/16 02:32:03;;;;;;;9.18;8.38;;;;;;;15.98;98.03;100027.75;6273023;22;20142;-79
2022/05/16 02:34:29;;;;;;;9.25;8.40;;;;;;;15.84;96.69;100045.22;6273407;22;20086;-80
2022/05/16 02:36:55;;;;;;;9.30;8.32;;;;;;;15.65;95.49;100044.50;6245435;22;20035;-80
2022/05/16 02:39:21;;;;;;;10.10;9.20;;;;;;;15.45;94.28;100047.03;6273593;22;20012;-80
2022/05/16 02:41:46;;;;;;;9.15;8.25;;;;;;;15.34;94.63;100043.97;6245880;22;20008;-80
2022/05/16 02:44:13;;;;;;;10.38;8.75;;;;;;;15.27;94.88;100047.09;6273539;22;20457;-80
2022/05/16 02:46:39;;;;;;;8.88;8.07;;;;;;;15.29;94.70;100050.16;6248265;22;20011;-80
2022/05/16 02:49:05;;;;;;;9.93;9.02;;;;;;;15.26;95.06;100042.72;6275870;22;20082;-80
2022/05/16 02:51:30;;;;;;;10.27;9.38;;;;;;;15.31;96.62;100030.94;6275730;22;20058;-80
2022/05/16 02:53:56;;;;;;;10.85;9.05;;;;;;;15.31;97.42;100033.72;6274666;22;20016;-80
2022/05/16 02:56:22;;;;;;;10.63;9.63;;;;;;;15.41;98.75;100032.44;6247485;22;20043;-80
2022/05/16 02:58:48;;;;;;;10.35;9.35;;;;;;;15.44;98.04;100030.75;6247712;22;20091;-80
2022/05/16 03:01:13;;;;;;;10.05;8.93;;;;;;;15.44;99.14;100037.13;6249097;22;20019;-80
2022/05/16 03:03:40;;;;;;;10.35;9.35;;;;;;;15.40;99.49;100039.31;6272453;22;20019;-80
2022/05/16 03:06:06;;;;;;;10.63;9.63;;;;;;;15.31;99.45;100030.94;6274907;22;20007;-80
2022/05/16 03:08:31;;;;;;;10.68;9.63;;;;;;;15.33;98.64;100042.41;6275145;22;20484;-80
2022/05/16 03:10:57;;;;;;;12.18;8.95;;;;;;;15.23;98.54;100030.47;6274644;22;20012;-80
2022/05/16 03:13:23;;;;;;;10.00;9.00;;;;;;;15.22;98.01;100036.53;6247724;22;20008;-80
2022/05/16 03:15:50;;;;;;;10.40;9.40;;;;;;;15.20;97.72;100031.44;6246369;22;20004;-80
2022/05/16 03:18:16;;;;;;;11.35;9.75;;;;;;;15.23;97.39;100032.50;6247301;22;20346;-80
2022/05/16 03:20:42;;;;;;;11.57;9.30;;;;;;;15.24;96.83;100037.63;6248364;22;20008;-80
2022/05/16 03:23:08;;;;;;;10.50;9.38;;;;;;;15.28;97.10;100038.25;6275007;22;20019;-80
2022/05/16 03:25:33;;;;;;;9.95;8.90;;;;;;;15.34;97.28;100036.34;6274325;22;20000;-80
2022/05/16 03:27:59;;;;;;;11.30;10.05;;;;;;;15.32;100.00;100026.91;6222543;22;20341;-80
2022/05/16 03:30:25;;;;;;;14.32;12.27;;;;;;;15.46;100.00;100026.22;6275570;22;20011;-85
2022/05/16 03:32:50;;;;;;;13.60;12.20;;;;;;;15.57;100.00;100025.78;6274144;22;20019;-86
2022/05/16 03:35:16;;;;;;;13.10;11.63;;;;;;;15.68;100.00;100038.00;6274561;22;20008;-85
2022/05/16 03:37:41;;;;;;;14.00;12.70;;;;;;;15.76;100.00;100033.63;6273984;22;20122;-86
2022/05/16 03:42:52;;;;;;;13.38;12.07;;;;;;;15.99;100.00;100034.91;6274431;22;20066;-86
2022/05/16 03:45:18;;;;;;;14.73;13.00;;;;;;;16.03;100.00;100038.28;6274436;22;20004;-86
2022/05/16 03:47:44;;;;;;;14.30;12.82;;;;;;;16.03;100.00;100034.72;6274310;22;20465;-85
2022/05/16 03:50:11;;;;;;;13.10;11.15;;;;;;;16.00;100.00;100035.66;6274681;22;20070;-80
2022/05/16 03:52:38;;;;;;;17.50;12.50;;;;;;;16.11;100.00;100036.69;6247327;22;20438;-80
2022/05/16 03:55:05;;;;;;;12.52;11.30;;;;;;;16.08;100.00;100042.47;6273961;22;20023;-80
2022/05/16 03:57:32;;;;;;;15.32;11.77;;;;;;;16.17;100.00;100050.81;6274933;22;20429;-80
2022/05/16 03:59:57;;;;;;;12.57;11.30;;;;;;;16.12;100.00;100051.47;6274743;22;20011;-80
2022/05/16 04:02:23;;;;;;;12.40;11.10;;;;;;;16.16;100.00;100049.25;6274247;22;20101;-80
2022/05/16 04:04:48;;;;;;;11.25;10.07;;;;;;;16.15;100.00;100054.09;6273892;22;20016;-80
2022/05/16 04:07:14;;;;;;;14.85;11.88;;;;;;;16.16;100.00;100049.25;6274114;22;20011;-80
2022/05/16 04:09:39;;;;;;;11.80;10.70;;;;;;;16.13;100.00;100050.22;6274368;22;20380;-84
2022/05/16 04:12:06;;;;;;;12.57;10.45;;;;;;;16.15;100.00;100036.50;6274450;22;20011;-85
2022/05/16 04:14:32;;;;;;;12.45;11.07;;;;;;;16.16;100.00;100054.84;6273365;22;20000;-84
2022/05/16 04:16:58;;;;;;;11.60;10.38;;;;;;;16.18;100.00;100049.56;6273362;22;20018;-84
2022/05/16 04:19:25;;;;;;;12.63;11.15;;;;;;;16.21;100.00;100048.63;6247701;22;20022;-85
2022/05/16 04:21:50;;;;;;;12.25;11.07;;;;;;;16.19;100.00;100048.31;6220865;22;20406;-84
2022/05/16 04:24:16;;;;;;;12.57;10.88;;;;;;;16.23;100.00;100051.69;6274126;22;20015;-84
2022/05/16 04:26:42;;;;;;;13.13;10.55;;;;;;;16.03;98.32;100054.31;6273391;22;19999;-85
2022/05/16 04:29:10;;;;;;;11.90;10.30;;;;;;;15.96;97.36;100060.25;6274388;22;20027;-85
2022/05/16 04:31:36;;;;;;;10.40;9.35;;;;;;;15.91;96.68;100063.69;6274530;22;20050;-85
2022/05/16 04:34:09;;;;;;;11.23;10.15;;;;;;;15.92;96.47;100060.44;6273235;22;20361;-84
2022/05/16 04:36:35;;;;;;;11.18;10.10;;;;;;;15.97;96.27;100064.59;6274186;22;20058;-84
2022/05/16 04:39:01;;;;;;;11.20;10.05;;;;;;;16.06;96.32;100061.75;6273548;22;20004;-85
2022/05/16 04:44:10;;;;;;;12.27;10.98;;;;;;;16.31;97.54;100066.91;6271691;22;20012;-84
2022/05/16 04:46:36;;;;;;;16.58;11.63;;;;;;;16.51;100.00;100064.28;6273629;22;20418;-85
2022/05/16 04:49:02;;;;;;;15.50;11.68;;;;;;;16.66;99.80;100067.94;6246991;22;20008;-85
2022/05/16 04:51:28;;;;;;;15.48;12.13;;;;;;;16.83;99.94;100064.69;6274447;22;20018;-85
2022/05/16 04:53:53;;;;;;;14.18;11.60;;;;;;;16.87;97.74;100068.09;6272882;22;20016;-85
2022/05/16 04:56:19;;;;;;;14.07;11.68;;;;;;;16.96;95.83;100077.19;6273538;22;20507;-85
2022/05/16 04:58:45;;;;;;;14.00;11.82;;;;;;;16.93;94.84;100083.00;6267756;22;20349;-86
2022/05/16 05:01:11;;;;;;;12.73;11.50;;;;;;;16.92;93.74;100087.03;6241134;22;20028;-85
2022/05/16 05:03:37;;;;;;;11.88;10.63;;;;;;;16.90;92.12;100078.34;6269567;22;20085;-86
2022/05/16 05:06:03;;;;;;;13.10;11.70;;;;;;;16.97;90.53;100086.38;6269067;22;20497;-80
2022/05/16 05:08:28;;;;;;;11.38;10.20;;;;;;;17.12;89.77;100081.56;6269802;22;20016;-80
2022/05/16 05:16:22;;;;;;;11.98;10.35;;;;;;;17.51;86.39;100096.31;6271604;22;20007;-80
2022/05/16 05:18:48;;;;;;;12.38;10.50;;;;;;;17.66;86.17;100099.91;6244000;22;20027;-80
2022/05/16 05:21:14;;;;;;;12.80;10.38;;;;;;;17.77;85.56;100099.31;6244511;22;20019;-80
2022/05/16 05:23:40;;;;;;;11.13;9.90;;;;;;;17.83;85.50;100091.78;6271720;22;20095;-85
2022/05/16 05:26:10;;;;;;;12.20;10.95;;;;;;;17.99;85.30;100106.09;6270936;22;20012;-85
2022/05/16 05:28:37;;;;;;;22.48;15.48;;;;;;;18.06;85.95;100093.69;6273789;22;20016;-85
2022/05/16 05:31:03;;;;;;;36.53;21.00;;;;;;;18.11;86.43;100082.53;6271820;22;20049;-85
2022/05/16 05:33:29;;;;;;;30.70;19.52;;;;;;;18.30;86.23;100097.09;6272513;22;20015;-84
2022/05/16 05:35:54;;;;;;;23.08;16.60;;;;;;;18.41;86.48;100099.28;6273036;22;20011;-85
2022/05/16 05:38:20;;;;;;;23.85;15.55;;;;;;;18.49;86.56;100104.00;6271210;22;20014;-85
2022/05/16 05:40:46;;;;;;;14.10;11.27;;;;;;;18.69;86.51;100105.31;6271126;22;20007;-85
2022/05/16 05:43:12;;;;;;;12.07;10.63;;;;;;;18.81;86.32;100104.97;6269683;22;20518;-84
2022/05/16 05:45:38;;;;;;;12.02;10.07;;;;;;;19.00;86.04;100102.66;6272126;22;20468;-85
2022/05/16 05:48:04;;;;;;;12.35;10.00;;;;;;;19.30;85.05;100112.44;6244979;22;20444;-85
2022/05/16 05:50:30;;;;;;;10.68;7.93;;;;;;;19.69;82.54;100112.88;6243906;22;20035;-85
2022/05/16 05:52:56;;;;;;;8.55;7.72;;;;;;;20.00;81.42;100126.16;6244499;22;20011;-85
2022/05/16 05:55:22;;;;;;;9.65;7.10;;;;;;;20.41;78.11;100121.88;6243555;22;20012;-86
2022/05/16 05:57:48;;;;;;;7.82;6.10;;;;;;;20.67;75.96;100112.53;6268924;22;20057;-85
2022/05/16 06:00:14;;;;;;;7.32;6.20;;;;;;;20.61;76.28;100123.03;6244544;22;20095;-85
2022/05/16 06:02:40;;;;;;;7.55;6.25;;;;;;;20.58;75.83;100121.22;6271181;22;20438;-85
2022/05/16 06:05:12;;;;;;;7.60;5.88;;;;;;;20.44;77.62;100123.69;6270303;22;20432;-80
2022/05/16 06:07:38;;;;;;;7.90;6.20;;;;;;;20.49;78.91;100125.00;6268751;22;20061;-80
2022/05/16 06:10:04;;;;;;;11.45;6.25;;;;;;;20.60;78.69;100118.66;6270072;22;20318;-79
2022/05/16 06:12:30;;;;;;;8.40;5.72;;;;;;;20.56;77.09;100115.28;6242428;22;20039;-79
2022/05/16 06:14:55;;;;;;;9.15;5.18;;;;;;;20.39;75.77;100113.16;6270873;22;20087;-79
2022/05/16 06:17:21;;;;;;;9.20;5.07;;;;;;;20.26;75.47;100117.66;6269773;22;20047;-79
2022/05/16 06:19:47;;;;;;;7.15;6.00;;;;;;;20.26;75.52;100118.41;6246160;22;20079;-79
2022/05/16 06:22:13;;;;;;;6.93;5.68;;;;;;;20.46;75.79;100118.31;6222504;22;20067;-79
2022/05/16 06:27:23;;;;;;;8.50;5.35;;;;;;;20.84;72.81;100107.75;6275915;22;20033;-83
2022/05/16 06:29:48;;;;;;;7.18;4.50;;;;;;;21.04;71.70;100113.22;6248637;22;20049;-83
2022/05/16 06:32:14;;;;;;;7.68;4.38;;;;;;;21.09;70.42;100115.28;6276059;22;20062;-83
2022/05/16 06:34:39;;;;;;;9.10;5.13;;;;;;;21.37;68.53;100110.53;6276072;22;20016;-83
2022/05/16 06:37:05;;;;;;;12.80;5.47;;;;;;;21.53;68.11;100116.69;6276019;22;20019;-83
2022/05/16 06:39:30;;;;;;;8.32;4.57;;;;;;;21.65;67.00;100118.25;6275408;22;20008;-83
2022/05/16 06:41:56;;;;;;;8.48;4.75;;;;;;;21.96;65.12;100109.56;6276065;22;20369;-83
2022/05/16 06:44:21;;;;;;;10.43;4.80;;;;;;;22.09;65.34;100106.22;6275899;22;20019;-83
2022/05/16 06:46:48;;;;;;;11.40;5.88;;;;;;;22.48;64.31;100115.44;6275463;22;20006;-83
2022/05/16 06:49:13;;;;;;;9.43;5.15;;;;;;;22.55;62.22;100112.06;6276161;22;20066;-83
2022/05/16 06:51:40;;;;;;;7.28;4.53;;;;;;;22.51;59.57;100119.25;6275952;22;20011;-83
2022/05/16 06:54:06;;;;;;;6.00;4.85;;;;;;;22.47;58.90;100113.88;6276216;22;20085;-83
2022/05/16 06:56:31;;;;;;;6.03;4.30;;;;;;;22.41;58.79;100101.03;6276153;22;20372;-83
2022/05/16 06:58:57;;;;;;;8.27;4.40;;;;;;;22.73;58.60;100107.91;6276251;22;20015;-83
2022/05/16 07:01:22;;;;;;;7.53;4.40;;;;;;;22.67;57.05;100112.78;6277163;22;20012;-83
2022/05/16 07:03:48;;;;;;;7.50;4.63;;;;;;;22.59;55.50;100108.97;6275454;22;20315;-83
2022/05/16 07:06:14;;;;;;;10.93;4.88;;;;;;;22.30;53.57;100111.09;6223326;22;20109;-83
2022/05/16 07:08:41;;;;;;;7.43;4.30;;;;;;;22.55;53.36;100102.81;6223413;22;20031;-83
2022/05/16 07:11:08;;;;;;;7.07;4.30;;;;;;;22.67;53.78;100113.56;6248621;22;20016;-83
2022/05/16 07:13:34;;;;;;;8.35;4.40;;;;;;;22.87;53.34;100112.50;6275010;22;20008;-83
2022/05/16 07:16:00;;;;;;;8.52;4.57;;;;;;;22.89;52.98;100114.81;6275323;22;20019;-83
2022/05/16 07:18:25;;;;;;;6.85;4.47;;;;;;;23.11;49.01;100109.03;6248469;22;20434;-84
2022/05/16 07:20:51;;;;;;;5.63;4.20;;;;;;;23.20;48.68;100092.53;6275411;22;20449;-83
2022/05/16 07:23:17;;;;;;;7.72;4.07;;;;;;;23.54;47.64;100095.94;6275890;22;20090;-83
2022/05/16 07:28:27;;;;;;;8.38;4.45;;;;;;;23.60;49.07;100088.19;6275268;22;20465;-83
2022/05/16 07:30:52;;;;;;;7.75;4.10;;;;;;;23.63;46.35;100106.94;6274988;22;20426;-82
2022/05/16 07:33:19;;;;;;;5.93;4.20;;;;;;;23.69;46.46;100107.69;6247682;22;20008;-83
2022/05/16 07:35:50;;;;;;;6.60;4.28;;;;;;;23.63;46.43;100115.44;6275464;22;20194;-83
2022/05/16 07:38:17;;;;;;;7.95;4.47;;;;;;;23.77;46.91;100107.88;6275332;22;20057;-83
2022/05/16 07:40:43;;;;;;;7.70;4.60;;;;;;;23.98;46.25;100123.16;6275774;22;20071;-83
2022/05/16 07:43:09;;;;;;;6.95;4.30;;;;;;;23.74;46.73;100108.19;6274834;22;20016;-83
2022/05/16 07:45:34;;;;;;;6.25;4.03;;;;;;;23.98;46.11;100111.06;6275725;22;20334;-83
2022/05/16 07:48:03;;;;;;;7.10;4.40;;;;;;;24.23;45.27;100131.72;6275014;22;20073;-83
2022/05/16 07:50:38;;;;;;;9.73;4.57;;;;;;;24.03;46.17;100113.84;6275256;22;20039;-83
2022/05/16 07:53:11;;;;;;;7.50;4.43;;;;;;;24.08;45.89;100121.53;6248592;22;20015;-83
2022/05/16 07:55:44;;;;;;;7.35;4.80;;;;;;;23.90;45.80;100127.84;6249284;22;20015;-83
2022/05/16 07:58:10;;;;;;;7.45;4.78;;;;;;;24.09;46.38;100123.06;6275181;22;20085;-83
2022/05/16 08:00:37;;;;;;;9.13;5.15;;;;;;;24.55;46.39;100124.94;6275435;22;20007;-83
2022/05/16 08:03:04;;;;;;;7.57;4.65;;;;;;;24.51;44.00;100126.53;6274543;22;20012;-83
2022/05/16 08:05:30;;;;;;;11.40;4.97;;;;;;;24.61;44.39;100122.84;6275331;22;20016;-83
2022/05/16 08:10:41;;;;;;;6.30;4.90;;;;;;;24.52;45.23;100125.25;6273457;22;20022;-83
2022/05/16 08:13:09;;;;;;;7.65;5.00;;;;;;;24.54;45.44;100114.16;6274354;22;20004;-83
2022/05/16 08:15:38;;;;;;;9.48;5.18;;;;;;;24.92;45.01;100117.84;6273406;22;20405;-84
2022/05/16 08:18:05;;;;;;;7.13;4.95;;;;;;;24.87;45.03;100119.44;6273498;22;20016;-83
2022/05/16 08:20:31;;;;;;;6.93;4.60;;;;;;;24.91;44.55;100119.91;6275272;22;20342;-83
2022/05/16 08:22:57;;;;;;;9.68;4.80;;;;;;;25.06;44.74;100128.78;6274006;22;20794;-83
2022/05/16 08:25:23;;;;;;;10.70;5.60;;;;;;;24.76;45.28;100128.06;6275163;22;20034;-84
2022/05/16 08:27:52;;;;;;;8.20;5.60;;;;;;;24.97;45.00;100117.03;6275141;22;20035;-83
2022/05/16 08:30:21;;;;;;;9.73;5.60;;;;;;;25.15;44.96;100113.44;6275309;22;20011;-83
2022/05/16 08:32:47;;;;;;;8.40;5.75;;;;;;;25.34;45.38;100119.13;6274633;22;20441;-83
2022/05/16 08:35:14;;;;;;;9.88;5.97;;;;;;;25.39;43.95;100127.56;6247664;22;20053;-83
2022/05/16 08:40:43;;;;;;;7.10;5.35;;;;;;;25.88;42.95;100128.13;6247873;22;20062;-84
2022/05/16 08:43:25;;;;;;;9.77;5.47;;;;;;;26.16;43.19;100116.31;6246857;22;20012;-83
2022/05/16 08:45:57;;;;;;;12.10;6.05;;;;;;;26.25;42.73;100132.19;6274657;22;20016;-84
2022/05/16 08:48:29;;;;;;;9.03;6.00;;;;;;;26.32;43.27;100125.88;6247384;22;20016;-83
2022/05/16 08:51:05;;;;;;;10.80;5.82;;;;;;;26.13;43.71;100130.81;6274274;22;20460;-83
2022/05/16 08:53:44;;;;;;;9.73;5.72;;;;;;;26.05;43.36;100132.75;6248607;22;20011;-84
2022/05/16 08:56:16;;;;;;;7.05;5.50;;;;;;;25.94;43.41;100110.97;6274302;22;20327;-83
2022/05/16 08:58:57;;;;;;;9.50;5.70;;;;;;;26.00;42.91;100128.72;6222145;22;20529;-84
2022/05/16 09:01:34;;;;;;;11.15;5.90;;;;;;;25.93;44.00;100118.75;6247596;22;20058;-84
2022/05/16 09:04:03;;;;;;;9.02;5.82;;;;;;;26.04;43.16;100111.34;6271058;22;20016;-84
2022/05/16 09:06:39;;;;;;;8.70;5.63;;;;;;;26.14;43.75;100120.97;6246188;22;20065;-84
2022/05/16 09:09:10;;;;;;;7.85;5.70;;;;;;;26.00;43.82;100129.47;6246655;22;20019;-84
2022/05/16 09:11:58;;;;;;;8.73;5.65;;;;;;;26.68;43.68;100124.16;6218179;22;20051;-84
2022/05/16 09:14:52;;;;;;;6.72;5.30;;;;;;;26.98;42.11;100112.44;6244818;22;20012;-84
2022/05/16 09:17:39;;;;;;;7.80;5.82;;;;;;;27.54;42.26;100120.53;6246248;22;20461;-84
2022/05/16 09:20:16;;;;;;;10.90;5.85;;;;;;;27.60;40.14;100121.19;6242484;22;20018;-84
2022/05/16 09:22:51;;;;;;;10.95;5.47;;;;;;;27.38;41.38;100127.34;6271392;22;20023;-82
2022/05/16 09:25:20;;;;;;;8.93;5.75;;;;;;;26.95;41.52;100115.63;6243910;22;20015;-82
2022/05/16 09:30:36;;;;;;;8.43;5.57;;;;;;;27.59;40.54;100104.63;6249829;22;20074;-83
2022/05/16 09:33:19;;;;;;;8.93;6.40;;;;;;;27.61;39.94;100110.56;6270855;22;20086;-83
2022/05/16 09:36:06;;;;;;;7.35;5.60;;;;;;;27.66;39.96;100110.41;6245895;22;20432;-83
2022/05/16 09:38:32;;;;;;;9.27;5.70;;;;;;;27.05;40.81;100096.78;6244823;22;20012;-83
2022/05/16 09:41:01;;;;;;;9.50;6.10;;;;;;;27.47;40.34;100106.97;6271295;22;20003;-82
2022/05/16 09:43:42;;;;;;;6.88;5.55;;;;;;;27.72;40.17;100104.56;6271337;22;20046;-83
2022/05/16 09:46:25;;;;;;;7.57;5.63;;;;;;;27.87;39.60;100109.66;6270999;22;20011;-82
2022/05/16 09:49:13;;;;;;;8.10;5.30;;;;;;;27.83;37.80;100098.59;6271585;22;20027;-82
2022/05/16 09:51:46;;;;;;;11.93;6.50;;;;;;;27.52;39.38;100089.00;6245370;22;20008;-83
2022/05/16 09:54:18;;;;;;;8.93;5.93;;;;;;;27.67;39.63;100097.69;6269663;22;20070;-83
2022/05/16 09:57:13;;;;;;;7.68;5.82;;;;;;;27.45;39.63;100092.50;6272445;22;20012;-83
2022/05/16 10:00:00;;;;;;;8.02;5.80;;;;;;;27.80;38.76;100089.09;6244905;22;20016;-83
2022/05/16 10:02:34;;;;;;;10.55;6.32;;;;;;;27.72;38.38;100088.25;6245927;22;20012;-83
2022/05/16 10:05:03;;;;;;;7.97;6.15;;;;;;;27.56;39.85;100097.19;6243706;22;20420;-83
2022/05/16 10:07:36;;;;;;;9.35;6.45;;;;;;;27.43;39.02;100089.44;6244850;22;20008;-83
2022/05/16 10:10:02;;;;;;;10.48;7.03;;;;;;;27.03;39.69;100085.16;6267301;22;20058;-82
2022/05/16 10:12:29;;;;;;;8.73;6.05;;;;;;;27.08;39.70;100087.13;6272118;22;20426;-83
2022/05/16 10:14:54;;;;;;;10.95;6.30;;;;;;;27.42;40.49;100073.66;6244853;22;20039;-83
2022/05/16 10:17:33;;;;;;;10.52;6.07;;;;;;;27.89;39.85;100079.28;6271200;22;20077;-83
2022/05/16 10:20:04;;;;;;;11.00;6.18;;;;;;;27.91;38.80;100075.84;6244051;22;20016;-83
2022/05/16 10:22:30;;;;;;;11.40;6.28;;;;;;;27.85;38.94;100069.53;6244615;22;20052;-83
2022/05/16 10:24:57;;;;;;;7.93;5.65;;;;;;;27.99;38.73;100071.00;6244745;22;20023;-83
2022/05/16 10:27:29;;;;;;;6.90;5.90;;;;;;;28.48;38.38;100074.63;6244956;22;20696;-83
2022/05/16 10:29:56;;;;;;;8.45;6.30;;;;;;;28.11;38.09;100060.84;6245023;22;20019;-83
2022/05/16 10:35:20;;;;;;;9.40;6.40;;;;;;;27.77;39.06;100058.09;6248592;22;20028;-83
2022/05/16 10:37:48;;;;;;;8.32;5.82;;;;;;;28.15;38.99;100062.03;6244607;22;20089;-83
2022/05/16 10:40:37;;;;;;;8.38;5.93;;;;;;;28.20;37.54;100058.25;6270957;22;20011;-83
2022/05/16 10:43:19;;;;;;;6.63;5.93;;;;;;;27.99;37.96;100068.91;6243661;22;20073;-83
2022/05/16 10:45:50;;;;;;;8.60;6.18;;;;;;;28.03;38.22;100051.44;6272674;22;20058;-83
2022/05/16 10:48:36;;;;;;;8.82;5.50;;;;;;;27.95;39.06;100059.94;6244009;22;20015;-82
2022/05/16 10:51:19;;;;;;;7.30;6.10;;;;;;;27.80;38.49;100040.63;6271605;22;20537;-82
2022/05/16 10:53:50;;;;;;;8.15;5.75;;;;;;;28.31;38.25;100051.47;6218479;22;20019;-83
2022/05/16 10:56:18;;;;;;;9.02;6.05;;;;;;;28.86;38.23;100042.69;6243044;22;20012;-83
2022/05/16 10:59:08;;;;;;;8.48;6.00;;;;;;;29.30;35.63;100046.28;6270338;22;20011;-82
2022/05/16 11:01:42;;;;;;;7.55;5.93;;;;;;;29.13;35.27;100044.69;6242778;22;20560;-82
2022/05/16 11:04:27;;;;;;;7.82;5.93;;;;;;;29.24;36.29;100046.44;6240070;22;20024;-83
2022/05/16 11:06:59;;;;;;;6.45;5.85;;;;;;;29.15;36.71;100038.44;6270948;22;20017;-82
2022/05/16 11:09:39;;;;;;;8.35;5.47;;;;;;;29.31;36.37;100042.88;6243852;22;20011;-83
2022/05/16 11:12:27;;;;;;;6.18;5.35;;;;;;;29.47;36.10;100035.88;6243683;22;20015;-83
2022/05/16 11:15:16;;;;;;;9.38;5.43;;;;;;;29.26;35.10;100034.44;6271678;22;20011;-83
2022/05/16 11:17:50;;;;;;;6.25;5.60;;;;;;;29.62;35.36;100024.44;6271407;22;20019;-83
2022/05/16 11:20:44;;;;;;;6.90;5.13;;;;;;;29.61;33.63;100025.78;6218458;22;20888;-82
2022/05/16 11:23:27;;;;;;;8.00;5.50;;;;;;;29.84;33.65;100025.03;6269607;22;20012;-82
2022/05/16 11:26:11;;;;;;;8.75;5.60;;;;;;;29.96;33.88;100017.63;6271573;22;20601;-82
2022/05/16 11:29:17;;;;;;;7.53;5.30;;;;;;;29.68;33.17;100012.06;6244409;22;20335;-82
2022/05/16 11:31:43;;;;;;;9.13;5.50;;;;;;;29.78;34.07;100008.06;6249121;22;20016;-83
2022/05/16 11:34:11;;;;;;;7.50;5.20;;;;;;;29.75;33.55;100017.78;6242935;22;20430;-83
2022/05/16 11:36:46;;;;;;;7.88;4.88;;;;;;;29.79;32.98;100003.88;6246129;22;20012;-83
2022/05/16 11:39:34;;;;;;;6.88;5.32;;;;;;;29.80;32.79;100004.63;6245832;22;20381;-83
2022/05/16 11:42:33;;;;;;;5.35;4.85;;;;;;;29.74;32.95;99998.34;6245422;22;20380;-83
2022/05/16 11:45:11;;;;;;;7.63;4.82;;;;;;;29.32;33.36;99998.66;6246334;22;20015;-82
2022/05/16 11:47:39;;;;;;;7.57;5.25;;;;;;;29.15;33.08;100002.06;6273744;22;20396;-83
2022/05/16 11:50:13;;;;;;;7.38;5.18;;;;;;;29.39;33.29;99997.94;6272079;22;20004;-82
2022/05/16 11:53:11;;;;;;;8.18;4.75;;;;;;;29.50;33.59;99991.84;6273569;22;20446;-82
2022/05/16 12:01:35;;;;;;;8.48;4.75;;;;;;;29.67;32.31;99982.72;6273135;22;20023;-82
2022/05/16 12:04:05;;;;;;;8.10;5.38;;;;;;;29.90;32.87;99985.56;6271909;22;20102;-83
2022/05/16 12:06:37;;;;;;;6.63;4.70;;;;;;;30.27;32.61;99973.31;6272390;22;20012;-83
2022/05/16 12:09:23;;;;;;;7.30;5.00;;;;;;;29.94;32.27;99977.38;6244932;22;20337;-82
2022/05/16 12:12:34;;;;;;;11.15;5.20;;;;;;;30.40;31.78;99972.31;6245647;22;20019;-82